Terminal Aerodrome Forecast
Issued by NWS Jackson, MS

Home | Current Version | Previous Version | Text Only | Print | Product List | Glossary On
Versions: 1 2 3 4 5 6 7 8 9 10 11 12 13 14 15
196
FTUS44 KJAN 250443 AAA
TAFGWO
TAF AMD
KGWO 250443Z 2505/2524 32010KT 4SM RA SCT009 BKN017 OVC028
     FM250900 33007KT P6SM -RA BKN050
     FM251300 01005KT P6SM VCSH BKN090 BKN250
     FM251500 02006KT P6SM BKN050 BKN250=

USA.gov is the U.S. government's official web portal to all federal, state and local government web resources and services.